Time;durP1;ratioP1;P1;durP2;ratioP2;P2;SDS_P1;SDS_P2;PMS_P1;PMS_P2;Temp;Humidity;BMP_temperature;BMP_pressure;BME280_temperature;BME280_humidity;BME280_pressure;Samples;Min_cycle;Max_cycle;Signal;HPM_P1;HPM_P2
2021/04/07 00:00:57;;;;;;;13.05;6.90;;;1.80;99.90;;;;;;5071512;28;20288;-77
2021/04/07 00:03:24;;;;;;;10.45;5.82;;;1.80;99.90;;;;;;5072967;28;20252;-77
2021/04/07 00:05:50;;;;;;;8.55;5.78;;;1.80;99.90;;;;;;5072338;28;20664;-76
2021/04/07 00:08:21;;;;;;;6.72;5.72;;;1.90;99.90;;;;;;5072027;28;20598;-77
2021/04/07 00:10:47;;;;;;;7.05;5.63;;;1.90;99.90;;;;;;5072117;28;20245;-77
2021/04/07 00:13:15;;;;;;;7.68;6.07;;;1.90;99.90;;;;;;5072930;28;20537;-77
2021/04/07 00:15:42;;;;;;;7.85;4.95;;;1.90;99.90;;;;;;5063782;28;20606;-77
2021/04/07 00:18:09;;;;;;;7.38;5.28;;;1.80;99.90;;;;;;5072753;28;20184;-77
2021/04/07 00:20:36;;;;;;;7.28;5.28;;;1.80;99.90;;;;;;5071939;28;20247;-77
2021/04/07 00:23:04;;;;;;;9.40;5.95;;;1.90;99.90;;;;;;5063949;28;20613;-77
2021/04/07 00:25:31;;;;;;;6.20;4.95;;;1.80;99.90;;;;;;5066820;28;20211;-77
2021/04/07 00:28:07;;;;;;;7.75;5.55;;;1.80;99.90;;;;;;5071447;28;20645;-77
2021/04/07 00:30:36;;;;;;;7.88;5.88;;;1.80;99.90;;;;;;5061916;28;20218;-77
2021/04/07 00:33:03;;;;;;;8.73;5.50;;;1.80;99.90;;;;;;5072219;28;20272;-77
2021/04/07 00:35:30;;;;;;;13.38;6.07;;;1.80;99.90;;;;;;5070289;28;20285;-77
2021/04/07 00:37:57;;;;;;;8.32;6.10;;;1.70;99.90;;;;;;5071559;28;20271;-77
2021/04/07 00:40:24;;;;;;;7.03;5.20;;;1.80;99.90;;;;;;5071021;28;20212;-77
2021/04/07 00:42:52;;;;;;;9.00;5.38;;;1.80;99.90;;;;;;5072519;28;20384;-77
2021/04/07 00:45:20;;;;;;;8.90;6.90;;;1.80;99.90;;;;;;5065872;28;20777;-77
2021/04/07 00:47:49;;;;;;;7.13;6.40;;;1.80;99.90;;;;;;5067637;28;20188;-77
2021/04/07 00:50:17;;;;;;;7.30;5.90;;;1.80;99.90;;;;;;5071650;28;20280;-77
2021/04/07 00:52:44;;;;;;;7.05;5.47;;;1.70;99.90;;;;;;5067060;28;20246;-77
2021/04/07 00:55:18;;;;;;;8.18;5.55;;;1.80;99.90;;;;;;5062534;28;20234;-77
2021/04/07 00:57:45;;;;;;;8.23;5.60;;;1.70;99.90;;;;;;5071799;28;20270;-77
2021/04/07 01:00:13;;;;;;;7.10;5.53;;;1.70;99.90;;;;;;5059471;28;20598;-77
2021/04/07 01:02:42;;;;;;;5.22;4.68;;;1.70;99.90;;;;;;5067134;28;20227;-77
2021/04/07 01:05:10;;;;;;;8.70;5.85;;;1.70;99.90;;;;;;5068587;28;20216;-77
2021/04/07 01:07:37;;;;;;;6.90;6.05;;;1.70;99.90;;;;;;5065997;28;20176;-77
2021/04/07 01:10:09;;;;;;;7.57;5.20;;;1.70;99.90;;;;;;5064806;28;20780;-77
2021/04/07 01:12:36;;;;;;;6.93;6.22;;;1.70;99.90;;;;;;5071433;28;20667;-77
2021/04/07 01:15:05;;;;;;;11.90;5.50;;;1.70;99.90;;;;;;5059510;28;20229;-77
2021/04/07 01:17:31;;;;;;;6.82;5.50;;;1.80;99.90;;;;;;5064754;28;20282;-77
2021/04/07 01:19:58;;;;;;;6.28;5.40;;;1.80;99.90;;;;;;5070543;28;20223;-77
2021/04/07 01:22:25;;;;;;;9.32;5.40;;;1.80;99.90;;;;;;5070503;28;20196;-77
2021/04/07 01:24:52;;;;;;;5.60;4.90;;;1.70;99.90;;;;;;5056785;28;20284;-77
2021/04/07 01:27:18;;;;;;;5.97;5.38;;;1.70;99.90;;;;;;5067459;28;20226;-77
2021/04/07 01:29:45;;;;;;;6.03;4.45;;;1.60;99.90;;;;;;5064841;28;20212;-77
2021/04/07 01:32:11;;;;;;;8.25;5.10;;;1.60;99.90;;;;;;5054651;28;20606;-77
2021/04/07 01:34:43;;;;;;;4.15;3.75;;;1.60;99.90;;;;;;5065781;28;20215;-77
2021/04/07 01:37:14;;;;;;;7.05;5.32;;;1.60;99.90;;;;;;5070772;28;20192;-77
2021/04/07 01:39:42;;;;;;;6.93;4.88;;;1.60;99.90;;;;;;5067921;28;20685;-77
2021/04/07 01:42:09;;;;;;;4.68;4.20;;;1.60;99.90;;;;;;5070815;28;20184;-76
2021/04/07 01:44:38;;;;;;;10.15;5.15;;;1.60;99.90;;;;;;5062754;28;20312;-77
2021/04/07 01:47:06;;;;;;;4.95;4.45;;;1.60;99.90;;;;;;5060816;28;20183;-77
2021/04/07 01:49:34;;;;;;;4.57;4.18;;;1.60;99.90;;;;;;5068828;28;20223;-77
2021/04/07 01:52:00;;;;;;;5.30;4.03;;;1.60;99.90;;;;;;5064832;28;20267;-77
2021/04/07 01:54:27;;;;;;;4.95;4.45;;;1.60;99.90;;;;;;5060349;28;20231;-77
2021/04/07 01:56:55;;;;;;;4.53;4.15;;;1.60;99.90;;;;;;5070078;28;20204;-77
2021/04/07 01:59:24;;;;;;;6.65;3.55;;;1.60;99.90;;;;;;5068961;28;20677;-77
2021/04/07 02:01:52;;;;;;;7.63;4.63;;;1.60;99.90;;;;;;5073898;28;20270;-77
2021/04/07 02:04:20;;;;;;;5.88;4.32;;;1.70;99.90;;;;;;5052120;28;622886;-78
2021/04/07 02:06:55;;;;;;;7.22;5.40;;;1.60;99.90;;;;;;5075392;28;20203;-77
2021/04/07 02:09:21;;;;;;;6.45;4.45;;;1.60;99.90;;;;;;5072603;28;20556;-77
2021/04/07 02:11:50;;;;;;;8.98;5.10;;;1.60;99.90;;;;;;5073786;28;20195;-77
2021/04/07 02:14:18;;;;;;;9.00;5.45;;;1.60;99.90;;;;;;5072453;28;20256;-77
2021/04/07 02:16:51;;;;;;;10.65;5.18;;;1.60;99.90;;;;;;5074648;28;20207;-77
2021/04/07 02:19:19;;;;;;;12.00;6.10;;;1.60;99.90;;;;;;5074450;28;20214;-77
2021/04/07 02:21:47;;;;;;;10.65;5.97;;;1.60;99.90;;;;;;5073996;28;20294;-78
2021/04/07 02:24:14;;;;;;;7.75;5.22;;;1.60;99.90;;;;;;5056792;28;20216;-77
2021/04/07 02:26:40;;;;;;;11.05;5.68;;;1.60;99.90;;;;;;5055259;28;20232;-77
2021/04/07 02:29:07;;;;;;;7.20;5.75;;;1.60;99.90;;;;;;5070640;28;20263;-77
2021/04/07 02:31:33;;;;;;;7.82;6.22;;;1.60;99.90;;;;;;5073196;28;20257;-77
2021/04/07 02:33:59;;;;;;;9.88;5.90;;;1.60;99.90;;;;;;5073825;28;20696;-77
2021/04/07 02:36:26;;;;;;;9.35;6.10;;;1.60;99.90;;;;;;5072609;28;20280;-77
2021/04/07 02:38:53;;;;;;;8.43;6.13;;;1.60;99.90;;;;;;5061401;28;20745;-77
2021/04/07 02:41:19;;;;;;;11.23;6.95;;;1.60;99.90;;;;;;5073521;28;20215;-77
2021/04/07 02:43:45;;;;;;;8.25;6.40;;;1.60;99.90;;;;;;5074853;28;20609;-77
2021/04/07 02:46:12;;;;;;;11.00;6.85;;;1.60;99.90;;;;;;5072548;28;20629;-77
2021/04/07 02:48:38;;;;;;;12.30;7.00;;;1.60;99.90;;;;;;5074724;28;20180;-77
2021/04/07 02:51:05;;;;;;;9.93;6.18;;;1.70;99.90;;;;;;5073859;28;20226;-77
2021/04/07 02:53:31;;;;;;;9.68;6.45;;;1.60;99.90;;;;;;5071604;28;20191;-77
2021/04/07 02:55:57;;;;;;;13.07;7.30;;;1.60;99.90;;;;;;5073763;28;20298;-77
2021/04/07 02:58:24;;;;;;;13.18;7.63;;;1.60;99.90;;;;;;5074075;28;20183;-77
2021/04/07 03:00:51;;;;;;;7.63;6.63;;;1.70;99.90;;;;;;5071901;28;20251;-77
2021/04/07 03:03:17;;;;;;;10.20;7.18;;;1.70;99.90;;;;;;5073477;28;20673;-77
2021/04/07 03:05:43;;;;;;;11.15;7.03;;;1.60;99.90;;;;;;5073602;28;20231;-77
2021/04/07 03:08:10;;;;;;;9.07;5.90;;;1.70;99.90;;;;;;5068934;28;20188;-77
2021/04/07 03:10:36;;;;;;;9.55;6.50;;;1.60;99.90;;;;;;5072211;28;20746;-78
2021/04/07 03:13:03;;;;;;;9.48;7.22;;;1.60;99.90;;;;;;5072508;28;20222;-78
2021/04/07 03:15:29;;;;;;;10.75;6.18;;;1.60;99.90;;;;;;5071287;28;20406;-77
2021/04/07 03:17:55;;;;;;;7.65;5.88;;;1.60;99.90;;;;;;5074271;28;20187;-77
2021/04/07 03:20:22;;;;;;;8.95;6.05;;;1.60;99.90;;;;;;5072786;28;20247;-77
2021/04/07 03:22:48;;;;;;;9.98;6.22;;;1.60;99.90;;;;;;5073050;28;20207;-78
2021/04/07 03:25:14;;;;;;;14.63;7.05;;;1.50;99.90;;;;;;5073158;28;20223;-77
2021/04/07 03:27:41;;;;;;;12.05;5.68;;;1.50;99.90;;;;;;5073686;28;20184;-77
2021/04/07 03:30:08;;;;;;;8.70;5.30;;;1.50;99.90;;;;;;5070546;28;20585;-77
2021/04/07 03:32:35;;;;;;;6.85;5.20;;;1.50;99.90;;;;;;5073814;28;20191;-77
2021/04/07 03:35:01;;;;;;;7.70;5.35;;;1.50;99.90;;;;;;5072921;28;20216;-77
2021/04/07 03:37:28;;;;;;;6.15;4.28;;;1.50;99.90;;;;;;5068479;28;20220;-77
2021/04/07 03:39:54;;;;;;;5.97;4.95;;;1.50;99.90;;;;;;5059866;28;20215;-77
2021/04/07 03:42:20;;;;;;;6.75;4.25;;;1.50;99.90;;;;;;5072732;28;20624;-77
2021/04/07 03:44:47;;;;;;;6.70;4.60;;;1.60;99.90;;;;;;5070350;28;20250;-77
2021/04/07 03:47:13;;;;;;;8.63;5.10;;;1.50;99.90;;;;;;5072113;28;20219;-77
2021/04/07 03:49:39;;;;;;;6.30;5.25;;;1.50;99.90;;;;;;5073176;28;20562;-77
2021/04/07 03:52:06;;;;;;;9.18;5.18;;;1.50;99.90;;;;;;5069467;28;20658;-77
2021/04/07 03:54:33;;;;;;;6.97;5.07;;;1.50;99.90;;;;;;5064933;28;20239;-77
2021/04/07 03:57:00;;;;;;;7.60;5.80;;;1.50;99.90;;;;;;5071751;28;20227;-77
2021/04/07 03:59:27;;;;;;;10.40;6.15;;;1.60;99.90;;;;;;5069628;28;20294;-78
2021/04/07 04:01:53;;;;;;;7.75;5.90;;;1.60;99.90;;;;;;5073512;28;20215;-77
2021/04/07 04:04:20;;;;;;;10.40;6.72;;;1.60;99.90;;;;;;5072490;28;20188;-77
2021/04/07 04:06:48;;;;;;;14.60;8.20;;;1.50;99.90;;;;;;5072263;28;20352;-77
2021/04/07 04:09:16;;;;;;;8.65;7.50;;;1.50;99.90;;;;;;5066081;28;20191;-77
2021/04/07 04:11:42;;;;;;;15.35;6.35;;;1.60;99.90;;;;;;5055494;28;20216;-77
2021/04/07 04:14:09;;;;;;;12.05;7.97;;;1.60;99.90;;;;;;5069089;28;20199;-77
2021/04/07 04:16:35;;;;;;;11.02;7.45;;;1.60;99.90;;;;;;5070568;28;20204;-77
2021/04/07 04:19:02;;;;;;;11.45;7.30;;;1.60;99.90;;;;;;5072413;28;20212;-78
2021/04/07 04:21:28;;;;;;;9.43;8.45;;;1.60;99.90;;;;;;5070673;28;20758;-78
2021/04/07 04:23:55;;;;;;;7.30;6.55;;;1.60;99.90;;;;;;5067369;28;20628;-77
2021/04/07 04:26:21;;;;;;;9.57;7.53;;;1.70;99.90;;;;;;5070838;28;20640;-77
2021/04/07 04:28:47;;;;;;;7.85;6.80;;;1.70;99.90;;;;;;5071805;28;20638;-77
2021/04/07 04:31:14;;;;;;;8.55;6.65;;;1.70;99.90;;;;;;5069093;28;20203;-78
2021/04/07 04:33:41;;;;;;;7.75;6.05;;;1.70;99.90;;;;;;5072353;28;20255;-77
2021/04/07 04:36:08;;;;;;;8.00;5.47;;;1.60;99.90;;;;;;5069945;28;20227;-77
2021/04/07 04:38:34;;;;;;;11.50;5.70;;;1.60;99.90;;;;;;5061379;28;20267;-77
2021/04/07 04:41:01;;;;;;;9.18;5.40;;;1.60;99.90;;;;;;5065262;28;20223;-78
2021/04/07 04:43:27;;;;;;;5.47;4.38;;;1.60;99.90;;;;;;5072261;28;20212;-77
2021/04/07 04:45:54;;;;;;;5.75;4.68;;;1.70;99.90;;;;;;5053622;28;20274;-77
2021/04/07 04:48:22;;;;;;;5.88;4.80;;;1.70;99.90;;;;;;5066407;28;20205;-77
2021/04/07 04:50:49;;;;;;;9.88;4.53;;;1.60;99.90;;;;;;5070483;28;20315;-77
2021/04/07 04:53:15;;;;;;;6.80;3.75;;;1.60;99.90;;;;;;5071020;28;20569;-77
2021/04/07 04:55:42;;;;;;;9.13;4.35;;;1.60;99.90;;;;;;5062577;28;20704;-77
2021/04/07 04:58:08;;;;;;;6.70;4.20;;;1.60;99.90;;;;;;5075004;28;20186;-77
2021/04/07 05:00:35;;;;;;;6.47;3.10;;;1.60;99.90;;;;;;5052035;28;20605;-77
2021/04/07 05:03:02;;;;;;;5.68;4.32;;;1.60;99.90;;;;;;5071892;28;20188;-77
2021/04/07 05:05:29;;;;;;;5.40;4.40;;;1.60;99.90;;;;;;5065222;28;20239;-77
2021/04/07 05:07:58;;;;;;;6.82;3.88;;;1.60;99.90;;;;;;5059696;28;20630;-77
2021/04/07 05:10:25;;;;;;;4.60;3.90;;;1.60;99.90;;;;;;5071311;28;20219;-77
2021/04/07 05:12:51;;;;;;;12.77;4.90;;;1.60;99.90;;;;;;5070914;28;20191;-77
2021/04/07 05:15:18;;;;;;;5.50;3.80;;;1.60;99.90;;;;;;5068922;28;20312;-77
2021/04/07 05:17:44;;;;;;;5.80;4.45;;;1.60;99.90;;;;;;5070563;28;20204;-77
2021/04/07 05:20:12;;;;;;;6.80;4.38;;;1.60;99.90;;;;;;5069248;28;20772;-77
2021/04/07 05:22:38;;;;;;;5.45;4.65;;;1.70;99.90;;;;;;5085889;28;21551;-77
2021/04/07 05:25:06;;;;;;;5.93;4.07;;;1.70;99.90;;;;;;5069984;28;20243;-77
2021/04/07 05:27:32;;;;;;;7.82;4.63;;;1.70;99.90;;;;;;5071489;28;20187;-77
2021/04/07 05:29:59;;;;;;;8.05;4.72;;;1.70;99.90;;;;;;5060862;28;20216;-77
2021/04/07 05:32:25;;;;;;;8.65;3.65;;;1.70;99.90;;;;;;5069914;28;20554;-78
2021/04/07 05:34:52;;;;;;;4.80;3.53;;;1.70;99.90;;;;;;5069611;28;20272;-77
2021/04/07 05:37:19;;;;;;;8.40;4.65;;;1.70;99.90;;;;;;5065974;28;20201;-77
2021/04/07 05:39:45;;;;;;;4.97;3.83;;;1.70;99.90;;;;;;5049052;28;20223;-77
2021/04/07 05:42:12;;;;;;;8.05;4.50;;;1.70;99.90;;;;;;5062137;28;20274;-77
2021/04/07 05:44:38;;;;;;;5.88;4.70;;;1.80;99.90;;;;;;5063346;28;20227;-77
2021/04/07 05:47:08;;;;;;;5.47;4.85;;;1.70;99.90;;;;;;5049524;28;20193;-77
2021/04/07 05:49:35;;;;;;;7.00;5.07;;;1.80;99.90;;;;;;5069346;28;20289;-77
2021/04/07 05:52:01;;;;;;;7.80;5.15;;;1.80;99.90;;;;;;5069864;28;20216;-77
2021/04/07 05:54:28;;;;;;;9.02;4.63;;;1.80;99.90;;;;;;5060192;28;20197;-78
2021/04/07 05:56:54;;;;;;;11.05;5.60;;;1.80;99.90;;;;;;5080063;28;20222;-78
2021/04/07 05:59:21;;;;;;;7.82;5.25;;;1.80;99.90;;;;;;5064810;28;20564;-77
2021/04/07 06:01:47;;;;;;;10.63;5.93;;;1.80;99.90;;;;;;5050185;28;20181;-77
2021/04/07 06:04:15;;;;;;;7.38;4.65;;;1.80;99.90;;;;;;5062765;28;20601;-77
2021/04/07 06:06:42;;;;;;;15.18;5.45;;;1.80;99.90;;;;;;5064580;28;20233;-77
2021/04/07 06:09:09;;;;;;;7.93;7.00;;;1.80;99.90;;;;;;5064600;28;20189;-77
2021/04/07 06:11:35;;;;;;;11.85;4.13;;;1.80;99.90;;;;;;5033507;28;20238;-78
2021/04/07 06:14:02;;;;;;;5.05;4.40;;;1.90;99.90;;;;;;5056490;28;20198;-77
2021/04/07 06:16:29;;;;;;;7.82;4.78;;;1.90;99.90;;;;;;5061232;28;20210;-77
2021/04/07 06:18:59;;;;;;;9.65;4.65;;;1.90;99.90;;;;;;5069117;28;20184;-77
2021/04/07 06:21:27;;;;;;;13.32;4.50;;;1.80;99.90;;;;;;5070719;28;20215;-77
2021/04/07 06:23:54;;;;;;;10.73;5.78;;;1.90;99.90;;;;;;5067932;28;20184;-78
2021/04/07 06:26:20;;;;;;;13.65;4.40;;;1.80;99.90;;;;;;5068549;28;20307;-77
2021/04/07 06:28:47;;;;;;;7.13;3.92;;;1.80;99.90;;;;;;5069204;28;20180;-78
2021/04/07 06:31:14;;;;;;;13.77;5.40;;;1.80;99.90;;;;;;5050902;28;20263;-77
2021/04/07 06:33:41;;;;;;;11.32;4.85;;;1.80;99.90;;;;;;5053305;28;20180;-77
2021/04/07 06:36:09;;;;;;;9.25;4.38;;;1.70;99.90;;;;;;5068881;28;20247;-78
2021/04/07 06:38:37;;;;;;;15.40;4.30;;;1.70;99.90;;;;;;5068623;28;20195;-77
2021/04/07 06:41:06;;;;;;;7.43;3.90;;;1.70;99.90;;;;;;5052677;28;20304;-77
2021/04/07 06:43:33;;;;;;;4.35;3.45;;;1.70;99.90;;;;;;5070851;28;20184;-77
2021/04/07 06:46:01;;;;;;;7.70;4.55;;;1.70;99.90;;;;;;5050449;28;20216;-77
2021/04/07 06:48:29;;;;;;;7.65;4.00;;;1.70;99.90;;;;;;5073875;28;20183;-77
2021/04/07 06:50:57;;;;;;;8.10;4.00;;;1.70;99.90;;;;;;5056056;28;20269;-78
2021/04/07 06:53:25;;;;;;;6.53;4.00;;;1.70;99.90;;;;;;5074887;28;20176;-78
2021/04/07 06:55:52;;;;;;;9.07;4.60;;;1.70;99.90;;;;;;5070670;28;20234;-78
2021/04/07 06:58:22;;;;;;;6.28;4.60;;;1.70;99.90;;;;;;5072525;28;20233;-78
2021/04/07 07:00:49;;;;;;;7.80;4.03;;;1.70;99.90;;;;;;5070542;28;20219;-78
2021/04/07 07:03:18;;;;;;;3.38;3.08;;;1.70;99.90;;;;;;5072845;28;20250;-78
2021/04/07 07:05:48;;;;;;;9.20;4.15;;;1.70;99.90;;;;;;5071304;28;20223;-77
2021/04/07 07:08:31;;;;;;;8.00;4.45;;;1.70;99.90;;;;;;5044624;28;20223;-77
2021/04/07 07:11:09;;;;;;;10.93;4.00;;;1.70;99.90;;;;;;5054661;28;20225;-77
2021/04/07 07:13:36;;;;;;;6.03;3.63;;;1.60;99.90;;;;;;5063767;28;20657;-77
2021/04/07 07:16:03;;;;;;;8.90;4.15;;;1.60;99.90;;;;;;5058922;28;20236;-78
2021/04/07 07:18:30;;;;;;;6.05;3.63;;;1.60;99.90;;;;;;5073000;28;20699;-78
2021/04/07 07:20:57;;;;;;;6.15;3.30;;;1.60;99.90;;;;;;5055606;28;20300;-78
2021/04/07 07:23:32;;;;;;;5.65;3.88;;;1.60;99.90;;;;;;5053546;28;20199;-77
2021/04/07 07:26:08;;;;;;;5.22;3.47;;;1.60;99.90;;;;;;5054073;28;20330;-77
2021/04/07 07:28:40;;;;;;;5.32;3.80;;;1.60;99.90;;;;;;5072387;28;20184;-77
2021/04/07 07:31:29;;;;;;;3.63;2.97;;;1.60;99.90;;;;;;5067941;28;20216;-77
2021/04/07 07:33:58;;;;;;;11.93;4.70;;;1.60;99.90;;;;;;5072657;28;20191;-77
2021/04/07 07:36:27;;;;;;;8.30;4.20;;;1.50;99.90;;;;;;5055211;28;20231;-78
2021/04/07 07:38:55;;;;;;;6.90;3.63;;;1.50;99.90;;;;;;5070966;28;20283;-77
2021/04/07 07:41:30;;;;;;;8.40;4.07;;;1.50;99.90;;;;;;5068094;28;20224;-77
2021/04/07 07:44:16;;;;;;;6.05;3.33;;;1.50;99.90;;;;;;5051648;28;20188;-77
2021/04/07 07:46:44;;;;;;;5.78;3.83;;;1.50;99.90;;;;;;5070088;28;20215;-78
2021/04/07 07:49:18;;;;;;;14.95;4.38;;;1.50;99.90;;;;;;5087824;28;20189;-78
2021/04/07 07:51:47;;;;;;;4.43;3.75;;;1.60;99.90;;;;;;5073567;28;20175;-77
2021/04/07 07:54:16;;;;;;;5.07;3.90;;;1.60;99.90;;;;;;5063608;28;20207;-78
2021/04/07 07:56:43;;;;;;;4.82;3.45;;;1.70;99.90;;;;;;5068988;28;20566;-77
2021/04/07 07:59:10;;;;;;;8.05;4.45;;;1.70;99.90;;;;;;5068223;28;20188;-78
2021/04/07 08:01:48;;;;;;;6.25;3.13;;;1.70;99.90;;;;;;5064271;28;20184;-77
2021/04/07 08:04:15;;;;;;;6.40;3.28;;;1.70;99.90;;;;;;5055104;28;20718;-78
2021/04/07 08:06:42;;;;;;;10.00;3.50;;;1.60;99.90;;;;;;5054433;28;20232;-78
2021/04/07 08:09:10;;;;;;;4.95;3.75;;;1.60;99.90;;;;;;5072030;28;20195;-77
2021/04/07 08:11:37;;;;;;;3.63;2.60;;;1.60;99.90;;;;;;5071714;28;20208;-77
2021/04/07 08:14:06;;;;;;;7.22;3.17;;;1.60;99.90;;;;;;5069616;28;20707;-77
2021/04/07 08:16:34;;;;;;;7.72;3.45;;;1.60;99.90;;;;;;5058737;28;20215;-78
2021/04/07 08:19:03;;;;;;;7.40;3.08;;;1.60;99.90;;;;;;5051638;28;20177;-78
2021/04/07 08:21:30;;;;;;;7.57;3.25;;;1.50;99.90;;;;;;5063080;28;20220;-78
2021/04/07 08:24:01;;;;;;;4.10;3.70;;;1.50;99.90;;;;;;5045767;28;20199;-78
2021/04/07 08:26:30;;;;;;;6.65;3.55;;;1.50;99.90;;;;;;5052700;28;20229;-78
2021/04/07 08:28:58;;;;;;;3.60;2.20;;;1.50;99.90;;;;;;5053381;28;20188;-77
2021/04/07 08:31:28;;;;;;;3.42;2.60;;;1.60;99.90;;;;;;5034937;28;20307;-78
2021/04/07 08:33:57;;;;;;;4.25;2.85;;;1.60;99.90;;;;;;5071195;28;20322;-78
2021/04/07 08:36:29;;;;;;;4.93;3.05;;;1.60;99.90;;;;;;5069997;28;20312;-77
2021/04/07 08:39:11;;;;;;;6.60;3.20;;;1.60;99.90;;;;;;5053993;28;20229;-78
2021/04/07 08:41:39;;;;;;;7.93;3.70;;;1.50;99.90;;;;;;5051065;28;20682;-77
2021/04/07 08:44:07;;;;;;;6.95;3.45;;;1.60;99.90;;;;;;5055861;28;20182;-78
2021/04/07 08:46:43;;;;;;;4.85;2.80;;;1.50;99.90;;;;;;5050681;28;20877;-78
2021/04/07 08:49:36;;;;;;;3.83;3.10;;;1.60;99.90;;;;;;5055011;28;20184;-77
2021/04/07 08:52:24;;;;;;;3.60;3.30;;;1.60;99.90;;;;;;5054466;28;20215;-77
2021/04/07 08:54:58;;;;;;;4.30;2.47;;;1.50;99.90;;;;;;5051323;28;20702;-78
2021/04/07 08:57:34;;;;;;;3.72;3.03;;;1.50;99.90;;;;;;5067610;28;20187;-78
2021/04/07 09:00:09;;;;;;;5.25;2.75;;;1.50;99.90;;;;;;5045633;28;20291;-78
2021/04/07 09:02:57;;;;;;;6.45;3.13;;;1.60;99.90;;;;;;5069504;28;20254;-78
2021/04/07 09:05:37;;;;;;;4.90;3.45;;;1.60;99.90;;;;;;5070574;28;20215;-77
2021/04/07 09:08:05;;;;;;;4.65;3.20;;;1.60;99.90;;;;;;5043870;28;20303;-78
2021/04/07 09:10:48;;;;;;;3.75;2.95;;;1.60;99.90;;;;;;5067918;28;20212;-77
2021/04/07 09:13:20;;;;;;;3.45;2.17;;;1.60;99.90;;;;;;5054496;28;20191;-77
2021/04/07 09:16:02;;;;;;;4.00;2.85;;;1.60;99.90;;;;;;5055973;28;20243;-78
2021/04/07 09:18:37;;;;;;;3.63;3.33;;;1.50;99.90;;;;;;5061048;28;20255;-78
2021/04/07 09:21:17;;;;;;;7.82;3.33;;;1.60;99.90;;;;;;5071257;28;20272;-78
2021/04/07 09:24:01;;;;;;;3.90;2.70;;;1.60;99.90;;;;;;5054631;28;20241;-78
2021/04/07 09:26:31;;;;;;;5.90;3.90;;;1.60;99.90;;;;;;5070904;28;20219;-78
2021/04/07 09:29:01;;;;;;;3.05;2.67;;;1.60;99.90;;;;;;5071203;28;20649;-78
2021/04/07 09:31:32;;;;;;;4.25;2.20;;;1.60;99.90;;;;;;5077370;28;20216;-78
2021/04/07 09:33:59;;;;;;;3.78;3.20;;;1.60;99.90;;;;;;5071509;28;20179;-78
2021/04/07 09:36:28;;;;;;;4.05;3.03;;;1.60;99.90;;;;;;5070372;28;20273;-78
2021/04/07 09:38:57;;;;;;;5.30;3.10;;;1.60;99.90;;;;;;5071814;28;20262;-79
2021/04/07 09:41:29;;;;;;;4.30;3.72;;;1.60;99.90;;;;;;5054191;28;20701;-78
2021/04/07 09:43:57;;;;;;;4.30;3.15;;;1.50;99.90;;;;;;5054240;28;20172;-79
2021/04/07 09:46:24;;;;;;;5.70;2.88;;;1.60;99.90;;;;;;5051622;28;20234;-79
2021/04/07 09:48:59;;;;;;;4.93;2.97;;;1.60;99.90;;;;;;5070810;28;20180;-79
2021/04/07 09:51:45;;;;;;;4.05;3.35;;;1.60;99.90;;;;;;5071744;28;20302;-79
2021/04/07 09:54:24;;;;;;;4.68;3.25;;;1.60;99.90;;;;;;5072428;28;20184;-80
2021/04/07 09:57:12;;;;;;;3.97;2.88;;;1.60;99.90;;;;;;5073773;28;20212;-80
2021/04/07 09:59:47;;;;;;;3.58;3.28;;;1.50;99.90;;;;;;5059574;28;20693;-80
2021/04/07 10:02:23;;;;;;;7.03;4.35;;;1.60;99.90;;;;;;5058320;28;20724;-80
2021/04/07 10:04:55;;;;;;;4.40;2.83;;;1.60;99.90;;;;;;5053049;28;20216;-80
2021/04/07 10:07:23;;;;;;;4.40;4.00;;;1.60;99.90;;;;;;5037115;28;20185;-80
2021/04/07 10:09:53;;;;;;;7.57;4.05;;;1.60;99.90;;;;;;5069128;28;20223;-80
2021/04/07 10:12:24;;;;;;;8.82;3.88;;;1.70;99.90;;;;;;5073733;28;20675;-80
2021/04/07 10:14:55;;;;;;;4.20;3.80;;;1.60;99.90;;;;;;5068185;28;20212;-79
2021/04/07 10:17:26;;;;;;;4.45;3.78;;;1.70;99.90;;;;;;5037988;28;20655;-80
2021/04/07 10:19:56;;;;;;;4.63;3.90;;;1.70;99.90;;;;;;5037361;28;20216;-80
2021/04/07 10:22:29;;;;;;;4.47;4.07;;;1.70;99.90;;;;;;5071603;28;20218;-80
2021/04/07 10:25:18;;;;;;;4.60;4.20;;;1.70;99.90;;;;;;5081270;28;20281;-81
2021/04/07 10:27:50;;;;;;;6.97;4.15;;;1.70;99.90;;;;;;5077741;28;20240;-81
2021/04/07 10:30:23;;;;;;;5.75;5.18;;;1.80;99.90;;;;;;5073593;28;20220;-81
2021/04/07 10:32:56;;;;;;;6.10;4.55;;;1.70;99.90;;;;;;5051619;28;20259;-81
2021/04/07 10:35:33;;;;;;;8.80;5.45;;;1.70;99.90;;;;;;5068534;28;20273;-81
2021/04/07 10:38:11;;;;;;;11.80;5.10;;;1.80;99.90;;;;;;5079765;28;20224;-81
2021/04/07 10:40:40;;;;;;;7.57;5.20;;;1.80;99.90;;;;;;5080766;28;20705;-81
2021/04/07 10:43:23;;;;;;;7.90;5.60;;;1.90;99.90;;;;;;5090374;28;20206;-81
2021/04/07 10:46:28;;;;;;;6.88;5.53;;;1.90;99.90;;;;;;5064249;28;20239;-82
2021/04/07 10:49:20;;;;;;;9.50;5.57;;;2.00;99.90;;;;;;5061465;28;20573;-82
2021/04/07 10:52:06;;;;;;;9.85;6.72;;;2.00;99.90;;;;;;5084981;28;20215;-83
2021/04/07 10:54:47;;;;;;;9.07;5.72;;;2.00;99.90;;;;;;5068583;28;20250;-81
2021/04/07 10:57:42;;;;;;;7.63;5.93;;;2.10;99.90;;;;;;5074949;28;20211;-82
2021/04/07 11:00:35;;;;;;;10.20;5.50;;;2.10;99.90;;;;;;5075122;28;20227;-81
2021/04/07 11:03:08;;;;;;;14.23;5.93;;;2.20;99.90;;;;;;5106497;28;20199;-81
2021/04/07 11:05:53;;;;;;;9.60;6.03;;;2.20;99.90;;;;;;5094260;28;20215;-82
2021/04/07 11:08:39;;;;;;;16.25;5.75;;;2.30;99.90;;;;;;5072705;28;20195;-81
2021/04/07 11:11:21;;;;;;;12.00;6.32;;;2.40;99.90;;;;;;5085360;28;20216;-81
2021/04/07 11:13:50;;;;;;;17.35;6.93;;;2.40;99.90;;;;;;5089730;28;20188;-81
2021/04/07 11:16:17;;;;;;;9.52;5.72;;;2.50;99.90;;;;;;5080692;28;20231;-79
2021/04/07 11:18:45;;;;;;;11.55;6.70;;;2.50;99.90;;;;;;5082025;28;20186;-79
2021/04/07 11:21:14;;;;;;;8.98;5.90;;;2.50;99.90;;;;;;5069881;28;20211;-80
2021/04/07 11:23:44;;;;;;;8.95;5.50;;;2.50;99.90;;;;;;5070050;28;20180;-80
2021/04/07 11:26:11;;;;;;;13.10;5.72;;;2.50;99.90;;;;;;5075627;28;20640;-80
2021/04/07 11:28:39;;;;;;;10.98;7.18;;;2.50;99.90;;;;;;5077001;28;20183;-79
2021/04/07 11:31:10;;;;;;;10.32;5.38;;;2.60;99.90;;;;;;5073964;28;20750;-80
2021/04/07 11:33:40;;;;;;;7.28;5.53;;;2.60;99.90;;;;;;5076366;28;20234;-80
2021/04/07 11:38:56;;;;;;;13.40;6.40;;;2.70;99.90;;;;;;5070882;28;20200;-80
2021/04/07 11:46:41;;;;;;;9.10;6.13;;;2.90;99.90;;;;;;5075660;28;20210;-80
2021/04/07 11:49:08;;;;;;;11.52;6.28;;;2.90;99.90;;;;;;5074986;28;20184;-80
2021/04/07 11:51:41;;;;;;;13.32;5.90;;;2.90;99.90;;;;;;5061091;28;20708;-80
2021/04/07 11:54:13;;;;;;;14.48;6.93;;;2.90;99.90;;;;;;5076749;28;20191;-80
2021/04/07 11:56:50;;;;;;;13.30;6.40;;;3.00;99.90;;;;;;5083229;28;20261;-81
2021/04/07 12:03:02;;;;;;;14.95;8.40;;;3.00;99.90;;;;;;5049938;28;20188;-80
2021/04/07 12:05:37;;;;;;;12.55;6.35;;;3.00;99.90;;;;;;5063435;28;20585;-80
2021/04/07 12:08:06;;;;;;;15.27;6.95;;;3.10;99.90;;;;;;5074983;28;20241;-80
2021/04/07 12:10:34;;;;;;;19.75;7.47;;;3.10;99.90;;;;;;5093908;28;20219;-80
2021/04/07 12:13:05;;;;;;;23.80;7.45;;;3.10;99.90;;;;;;5082252;28;20203;-81
2021/04/07 12:15:42;;;;;;;14.45;7.25;;;3.20;99.90;;;;;;5079031;28;20262;-81
2021/04/07 12:18:27;;;;;;;14.27;7.05;;;3.30;99.90;;;;;;5064141;28;20185;-80
2021/04/07 12:20:55;;;;;;;12.38;6.53;;;3.30;99.90;;;;;;5075028;28;20224;-80
2021/04/07 12:23:49;;;;;;;11.73;6.47;;;3.40;99.90;;;;;;5063669;28;20189;-80
2021/04/07 12:26:16;;;;;;;17.00;7.68;;;3.50;99.90;;;;;;5074964;28;20243;-80
2021/04/07 12:28:45;;;;;;;12.95;7.10;;;3.50;99.90;;;;;;5058865;28;20216;-80
2021/04/07 12:31:14;;;;;;;14.90;6.35;;;3.50;99.90;;;;;;5061234;28;20481;-80
2021/04/07 12:33:50;;;;;;;23.52;7.85;;;3.60;99.90;;;;;;5074967;28;20241;-80
2021/04/07 12:36:17;;;;;;;10.00;5.75;;;3.60;99.90;;;;;;5072625;28;20228;-80
2021/04/07 12:38:44;;;;;;;19.13;7.85;;;3.60;99.90;;;;;;5058185;28;20658;-79
2021/04/07 12:41:51;;;;;;;14.68;6.43;;;3.60;99.90;;;;;;5071232;28;20276;-80
2021/04/07 12:44:51;;;;;;;11.75;6.35;;;3.60;99.90;;;;;;5069312;28;20653;-80
2021/04/07 12:47:18;;;;;;;14.60;7.38;;;3.70;99.90;;;;;;5085884;28;20180;-81
2021/04/07 12:50:40;;;;;;;9.40;6.40;;;3.70;99.90;;;;;;5067443;28;20222;-82
2021/04/07 12:53:39;;;;;;;9.45;5.32;;;3.70;99.90;;;;;;5083830;28;20184;-83
2021/04/07 13:52:18;;;;;;;15.90;5.90;;;4.40;99.90;;;;;;5082090;23;20218;-81
2021/04/07 13:54:45;;;;;;;16.30;6.50;;;4.50;99.90;;;;;;4973548;28;20211;-81
2021/04/07 13:57:28;;;;;;;16.52;6.10;;;4.50;99.90;;;;;;4984236;28;20198;-83
2021/04/07 14:00:05;;;;;;;13.52;6.55;;;4.50;99.90;;;;;;4939875;28;20212;-80
2021/04/07 14:02:34;;;;;;;10.85;5.82;;;4.50;99.90;;;;;;4927038;29;20260;-80
2021/04/07 14:05:08;;;;;;;14.27;6.50;;;4.40;99.90;;;;;;4937460;28;20238;-79
2021/04/07 14:07:35;;;;;;;20.20;7.95;;;4.40;99.90;;;;;;4940683;29;20187;-79
2021/04/07 14:10:03;;;;;;;13.60;7.35;;;4.40;99.90;;;;;;4944544;28;20227;-79
2021/04/07 14:12:50;;;;;;;14.40;7.93;;;4.40;99.90;;;;;;4957708;28;20558;-79
2021/04/07 14:15:22;;;;;;;15.43;6.68;;;4.40;99.90;;;;;;4945752;28;20227;-80
2021/04/07 14:18:31;;;;;;;19.10;6.75;;;4.50;99.90;;;;;;4966635;28;20191;-80
2021/04/07 14:21:22;;;;;;;13.23;6.05;;;4.70;99.90;;;;;;4956141;28;20222;-78